createdAt,value
2018-12-23T00:01:26.906Z,84.60
2018-12-23T00:03:54.356Z,84.60
2018-12-23T00:06:21.787Z,84.50
2018-12-23T00:08:49.248Z,84.50
2018-12-23T00:11:16.683Z,84.40
2018-12-23T00:13:44.140Z,84.90
2018-12-23T00:16:11.568Z,84.60
2018-12-23T00:18:39.028Z,84.50
2018-12-23T00:21:06.529Z,84.90
2018-12-23T00:23:34.935Z,84.60
2018-12-23T00:26:02.563Z,84.50
2018-12-23T00:28:30.016Z,84.50
2018-12-23T00:30:57.466Z,84.60
2018-12-23T00:33:25.646Z,85.00
2018-12-23T00:35:53.156Z,85.10
2018-12-23T00:38:20.597Z,85.60
2018-12-23T00:40:48.082Z,84.90
2018-12-23T00:43:15.547Z,84.80
2018-12-23T00:45:43.008Z,85.60
2018-12-23T00:48:10.536Z,84.90
2018-12-23T00:50:37.982Z,84.80
2018-12-23T00:53:05.451Z,84.90
2018-12-23T00:55:32.913Z,84.80
2018-12-23T00:58:00.379Z,85.00
2018-12-23T01:00:28.373Z,84.90
2018-12-23T01:02:55.838Z,84.90
2018-12-23T01:05:28.766Z,85.50
2018-12-23T01:07:53.678Z,84.90
2018-12-23T01:10:21.123Z,85.10
2018-12-23T01:12:48.590Z,85.30
2018-12-23T01:15:16.115Z,84.90
2018-12-23T01:17:43.651Z,85.00
2018-12-23T01:20:11.093Z,84.90
2018-12-23T01:22:38.545Z,84.90
2018-12-23T01:25:06.531Z,84.90
2018-12-23T01:27:33.979Z,84.80
2018-12-23T01:30:01.462Z,84.70
2018-12-23T01:32:28.914Z,84.60
2018-12-23T01:34:56.381Z,84.90
2018-12-23T01:37:23.854Z,84.70
2018-12-23T01:39:51.377Z,85.20
2018-12-23T01:44:52.860Z,84.50
2018-12-23T01:47:20.390Z,84.50
2018-12-23T01:49:47.837Z,84.40
2018-12-23T01:52:15.336Z,84.30
2018-12-23T01:54:42.786Z,84.40
2018-12-23T01:57:10.249Z,84.40
2018-12-23T01:59:37.705Z,84.40
2018-12-23T02:02:05.189Z,84.20
2018-12-23T02:04:32.637Z,84.20
2018-12-23T02:07:00.130Z,84.50
2018-12-23T02:09:27.605Z,84.40
2018-12-23T02:11:55.070Z,84.60
2018-12-23T02:14:22.581Z,84.60
2018-12-23T02:16:50.157Z,85.30
2018-12-23T02:19:17.600Z,84.90
2018-12-23T02:21:45.088Z,84.50
2018-12-23T02:24:12.537Z,84.90
2018-12-23T02:26:40.005Z,86.80
2018-12-23T02:29:07.461Z,86.80
2018-12-23T02:31:34.974Z,86.70
2018-12-23T02:34:02.611Z,86.20
2018-12-23T02:36:30.098Z,85.10
2018-12-23T02:38:57.767Z,84.70
2018-12-23T02:41:31.587Z,84.70
2018-12-23T02:43:54.753Z,85.90
2018-12-23T02:46:22.314Z,84.90
2018-12-23T02:48:49.787Z,85.20
2018-12-23T02:51:17.226Z,84.90
2018-12-23T02:53:44.720Z,85.20
2018-12-23T02:56:12.180Z,84.70
2018-12-23T02:58:40.241Z,84.70
2018-12-23T03:01:07.745Z,85.50
2018-12-23T03:03:35.383Z,84.90
2018-12-23T03:06:06.122Z,87.50
2018-12-23T03:08:32.362Z,85.50
2018-12-23T03:10:59.859Z,84.90
2018-12-23T03:13:27.381Z,84.70
2018-12-23T03:15:54.841Z,84.70
2018-12-23T03:18:22.301Z,84.80
2018-12-23T03:20:49.984Z,85.00
2018-12-23T03:23:17.933Z,84.60
2018-12-23T03:25:45.530Z,85.00
2018-12-23T03:28:13.009Z,84.70
2018-12-23T03:30:40.585Z,84.70
2018-12-23T03:33:08.129Z,84.80
2018-12-23T03:35:35.764Z,85.40
2018-12-23T03:38:03.304Z,84.70
2018-12-23T03:40:31.673Z,84.90
2018-12-23T03:42:59.139Z,84.90
2018-12-23T03:45:26.605Z,85.30
2018-12-23T03:47:54.085Z,85.10
2018-12-23T03:50:21.549Z,84.90
2018-12-23T03:52:49.026Z,84.80
2018-12-23T03:55:17.440Z,85.20
2018-12-23T03:57:44.962Z,84.60
2018-12-23T04:00:12.455Z,84.80
2018-12-23T04:02:39.916Z,85.30
2018-12-23T04:05:07.398Z,84.70
2018-12-23T04:07:34.835Z,84.90
2018-12-23T04:10:02.300Z,84.70
2018-12-23T04:12:29.811Z,84.70
2018-12-23T04:14:57.302Z,84.90
2018-12-23T04:17:25.177Z,84.90
2018-12-23T04:19:52.627Z,84.40
2018-12-23T04:22:20.101Z,84.20
2018-12-23T04:24:47.560Z,84.90
2018-12-23T04:27:15.030Z,84.50
2018-12-23T04:29:42.495Z,84.80
2018-12-23T04:32:09.988Z,83.90
2018-12-23T04:34:37.427Z,84.90
2018-12-23T04:37:04.881Z,84.90
2018-12-23T04:39:32.947Z,84.90
2018-12-23T04:42:00.416Z,84.70
2018-12-23T04:44:27.897Z,85.00
2018-12-23T04:46:55.356Z,84.60
2018-12-23T04:49:22.827Z,84.70
2018-12-23T04:51:50.431Z,84.60
2018-12-23T04:54:17.912Z,84.50
2018-12-23T04:56:45.385Z,85.20
2018-12-23T04:59:13.411Z,84.50
2018-12-23T05:01:41.545Z,84.50
2018-12-23T05:04:08.997Z,84.40
2018-12-23T05:06:43.237Z,84.40
2018-12-23T05:09:06.027Z,84.40
2018-12-23T05:11:33.497Z,84.20
2018-12-23T05:14:00.941Z,84.20
2018-12-23T05:16:28.429Z,85.10
2018-12-23T05:18:55.890Z,84.40
2018-12-23T05:21:23.414Z,84.20
2018-12-23T05:23:50.925Z,84.10
2018-12-23T05:26:18.519Z,84.00
2018-12-23T05:28:46.042Z,84.00
2018-12-23T05:31:13.490Z,84.10
2018-12-23T05:33:40.952Z,84.00
2018-12-23T05:36:08.414Z,84.00
2018-12-23T05:38:35.913Z,84.00
2018-12-23T05:41:03.370Z,84.00
2018-12-23T05:43:30.847Z,84.00
2018-12-23T05:45:58.318Z,84.00
2018-12-23T05:48:25.792Z,84.00
2018-12-23T05:50:53.247Z,84.00
2018-12-23T05:53:20.733Z,84.00
2018-12-23T05:55:47.804Z,83.90
2018-12-23T05:58:15.285Z,84.10
2018-12-23T06:00:42.730Z,83.90
2018-12-23T06:03:10.217Z,84.00
2018-12-23T06:05:37.682Z,83.90
2018-12-23T06:08:05.168Z,83.90
2018-12-23T06:10:32.688Z,83.90
2018-12-23T06:13:00.190Z,84.00
2018-12-23T06:15:27.644Z,84.00
2018-12-23T06:17:55.129Z,84.00
2018-12-23T06:20:22.593Z,84.10
2018-12-23T06:22:50.049Z,84.40
2018-12-23T06:25:17.628Z,84.10
2018-12-23T06:27:45.138Z,84.30
2018-12-23T06:30:12.613Z,84.50
2018-12-23T06:32:40.111Z,84.00
2018-12-23T06:35:07.660Z,84.00
2018-12-23T06:37:35.094Z,84.00
2018-12-23T06:40:15.861Z,84.00
2018-12-23T06:42:43.301Z,84.10
2018-12-23T06:45:10.781Z,84.00
2018-12-23T06:47:38.256Z,84.30
2018-12-23T06:50:05.765Z,84.90
2018-12-23T06:52:33.318Z,84.30
2018-12-23T06:55:00.894Z,84.10
2018-12-23T06:57:28.380Z,84.20
2018-12-23T06:59:55.859Z,84.10
2018-12-23T07:02:23.315Z,84.30
2018-12-23T07:04:50.805Z,84.60
2018-12-23T07:07:18.797Z,84.40
2018-12-23T07:09:46.616Z,84.50
2018-12-23T07:12:14.162Z,85.00
2018-12-23T07:14:41.638Z,84.30
2018-12-23T07:17:09.125Z,83.80
2018-12-23T07:19:36.569Z,84.20
2018-12-23T07:22:04.191Z,84.40
2018-12-23T07:24:31.661Z,84.30
2018-12-23T07:26:59.152Z,84.30
2018-12-23T07:29:26.682Z,84.50
2018-12-23T07:31:54.162Z,84.40
2018-12-23T07:34:21.643Z,84.90
2018-12-23T07:36:49.636Z,84.40
2018-12-23T07:39:17.536Z,84.60
2018-12-23T07:41:44.990Z,84.60
2018-12-23T07:44:12.453Z,84.50
2018-12-23T07:46:39.923Z,84.60
2018-12-23T07:49:07.390Z,84.50
2018-12-23T07:51:34.852Z,84.40
2018-12-23T07:54:02.335Z,84.40
2018-12-23T07:56:29.842Z,84.60
2018-12-23T07:58:57.309Z,84.40
2018-12-23T08:01:24.757Z,84.70
2018-12-23T08:03:52.215Z,84.40
2018-12-23T08:06:19.691Z,84.40
2018-12-23T08:08:47.225Z,84.30
2018-12-23T08:11:14.675Z,84.60
2018-12-23T08:13:42.258Z,85.20
2018-12-23T08:16:10.662Z,84.40
2018-12-23T08:18:38.140Z,84.50
2018-12-23T08:21:06.790Z,84.20
2018-12-23T08:23:34.225Z,84.50
2018-12-23T08:26:01.779Z,84.30
2018-12-23T08:28:29.250Z,84.30
2018-12-23T08:30:56.728Z,84.30
2018-12-23T08:33:24.303Z,84.30
2018-12-23T08:35:53.471Z,84.40
2018-12-23T08:38:20.925Z,84.30
2018-12-23T08:40:48.383Z,84.40
2018-12-23T08:43:15.966Z,84.40
2018-12-23T08:45:43.414Z,84.60
2018-12-23T08:48:11.033Z,84.60
2018-12-23T08:50:38.483Z,84.40
2018-12-23T08:53:06.021Z,84.70
2018-12-23T08:55:33.470Z,84.30
2018-12-23T08:58:00.911Z,84.20
2018-12-23T09:00:28.384Z,84.20
2018-12-23T09:02:55.834Z,84.50
2018-12-23T09:05:23.306Z,84.20
2018-12-23T09:07:53.162Z,84.30
2018-12-23T09:10:20.849Z,84.50
2018-12-23T09:12:48.326Z,84.30
2018-12-23T09:15:15.803Z,84.30
2018-12-23T09:17:43.255Z,84.00
2018-12-23T09:20:10.725Z,84.00
2018-12-23T09:22:38.168Z,84.00
2018-12-23T09:25:05.693Z,84.30
2018-12-23T09:27:33.174Z,84.40
2018-12-23T09:30:00.661Z,84.90
2018-12-23T09:32:28.121Z,84.10
2018-12-23T09:34:55.578Z,85.00
2018-12-23T09:37:23.046Z,84.60
2018-12-23T09:39:50.532Z,84.10
2018-12-23T09:42:18.005Z,84.00
2018-12-23T09:44:45.493Z,83.90
2018-12-23T09:47:12.941Z,83.90
2018-12-23T09:49:40.469Z,83.90
2018-12-23T09:52:07.932Z,85.30
2018-12-23T09:54:35.378Z,84.50
2018-12-23T09:57:09.719Z,85.10
2018-12-23T09:59:37.163Z,84.00
2018-12-23T10:02:04.638Z,84.30
2018-12-23T10:04:32.117Z,84.00
2018-12-23T10:06:59.685Z,83.80
2018-12-23T10:09:27.128Z,83.60
2018-12-23T10:11:56.258Z,84.00
2018-12-23T10:14:24.058Z,83.80
2018-12-23T10:16:51.537Z,83.80
2018-12-23T10:19:19.249Z,84.20
2018-12-23T10:21:46.807Z,84.00
2018-12-23T10:24:14.301Z,83.70
2018-12-23T10:26:41.764Z,84.20
2018-12-23T10:29:09.392Z,84.00
2018-12-23T10:31:36.976Z,84.90
2018-12-23T10:34:04.441Z,84.60
2018-12-23T10:36:31.913Z,84.20
2018-12-23T10:38:59.390Z,84.40
2018-12-23T10:41:26.875Z,84.30
2018-12-23T10:43:54.329Z,84.60
2018-12-23T10:46:21.799Z,84.40
2018-12-23T10:48:49.390Z,84.80
2018-12-23T10:51:16.833Z,84.40
2018-12-23T10:53:44.294Z,85.30
2018-12-23T10:56:11.811Z,85.30
2018-12-23T10:58:39.283Z,85.10
2018-12-23T11:01:06.733Z,84.80
2018-12-23T11:03:34.176Z,84.90
2018-12-23T11:06:01.654Z,85.60
2018-12-23T11:08:29.123Z,84.80
2018-12-23T11:10:56.578Z,84.90
2018-12-23T11:13:24.062Z,84.50
2018-12-23T11:15:51.849Z,84.80
2018-12-23T11:18:19.310Z,84.90
2018-12-23T11:20:46.779Z,84.80
2018-12-23T11:23:14.229Z,84.60
2018-12-23T11:25:41.682Z,84.70
2018-12-23T11:28:09.168Z,85.40
2018-12-23T11:30:36.622Z,84.80
2018-12-23T11:33:04.093Z,84.80
2018-12-23T11:35:31.557Z,84.60
2018-12-23T11:37:59.030Z,84.60
2018-12-23T11:40:26.562Z,84.50
2018-12-23T11:42:54.026Z,84.70
2018-12-23T11:45:21.474Z,84.60
2018-12-23T11:47:48.949Z,84.70
2018-12-23T11:50:16.438Z,85.40
2018-12-23T11:52:43.889Z,84.70
2018-12-23T11:55:11.349Z,84.70
2018-12-23T11:57:38.793Z,84.40
2018-12-23T12:00:06.497Z,84.70
2018-12-23T12:02:33.966Z,85.20
2018-12-23T12:05:01.409Z,84.70
2018-12-23T12:07:28.866Z,84.70
2018-12-23T12:09:56.323Z,84.80
2018-12-23T12:12:23.803Z,84.70
2018-12-23T12:14:51.269Z,84.60
2018-12-23T12:17:18.717Z,84.60
2018-12-23T12:19:46.183Z,84.60
2018-12-23T12:22:13.644Z,84.50
2018-12-23T12:24:41.104Z,84.50
2018-12-23T12:27:08.554Z,84.40
2018-12-23T12:29:36.017Z,84.50
2018-12-23T12:32:03.594Z,84.50
2018-12-23T12:34:31.069Z,84.60
2018-12-23T12:36:58.528Z,84.60
2018-12-23T12:39:25.985Z,84.60
2018-12-23T12:41:53.519Z,84.60
2018-12-23T12:44:20.974Z,84.70
2018-12-23T12:46:48.425Z,84.70
2018-12-23T12:49:15.906Z,84.60
2018-12-23T12:51:43.348Z,84.60
2018-12-23T12:54:10.790Z,84.50
2018-12-23T12:56:38.245Z,84.70
2018-12-23T12:59:05.704Z,84.50
2018-12-23T13:01:33.165Z,84.60
2018-12-23T13:04:00.607Z,84.70
2018-12-23T13:06:28.077Z,84.90
2018-12-23T13:09:00.509Z,84.70
2018-12-23T13:11:26.687Z,84.90
2018-12-23T13:13:54.461Z,84.90
2018-12-23T13:16:21.949Z,84.80
2018-12-23T13:18:49.382Z,84.70
2018-12-23T13:21:17.059Z,84.60
2018-12-23T13:23:44.518Z,84.40
2018-12-23T13:26:11.967Z,84.50
2018-12-23T13:28:39.433Z,84.50
2018-12-23T13:31:06.899Z,84.60
2018-12-23T13:33:34.367Z,84.60
2018-12-23T13:36:01.825Z,84.50
2018-12-23T13:39:19.446Z,84.60
2018-12-23T13:56:28.779Z,84.40
2018-12-23T14:48:13.457Z,83.90
2018-12-23T15:22:44.296Z,84.50
2018-12-23T16:15:05.578Z,85.80
2018-12-23T17:21:28.945Z,86.90
2018-12-23T17:32:53.664Z,88.20
2018-12-23T17:35:41.583Z,90.50
2018-12-23T17:41:27.229Z,91.30
2018-12-23T17:44:08.498Z,91.70
2018-12-23T17:49:40.528Z,90.80
2018-12-23T17:52:23.297Z,90.60
2018-12-23T17:55:04.728Z,90.40
2018-12-23T17:57:45.964Z,90.40
2018-12-23T18:00:27.172Z,90.30
2018-12-23T18:03:07.991Z,90.60
2018-12-23T18:08:35.662Z,90.00
2018-12-23T18:11:17.047Z,89.80
2018-12-23T18:13:58.078Z,89.70
2018-12-23T18:16:39.120Z,89.60
2018-12-23T18:19:20.372Z,89.60
2018-12-23T18:22:01.843Z,89.40
2018-12-23T18:24:43.887Z,89.20
2018-12-23T18:27:24.262Z,89.80
2018-12-23T18:32:38.512Z,89.00
2018-12-23T18:35:26.543Z,88.70
2018-12-23T18:38:08.075Z,88.90
2018-12-23T18:40:49.415Z,88.80
2018-12-23T18:43:30.278Z,88.80
2018-12-23T18:46:12.340Z,88.40
2018-12-23T18:54:35.312Z,88.00
2018-12-23T18:57:17.112Z,88.10
2018-12-23T19:12:36.625Z,87.60
2018-12-23T19:26:42.627Z,87.00
2018-12-23T19:38:22.637Z,86.90
2018-12-23T19:43:57.520Z,86.70
2018-12-23T19:46:38.399Z,86.70
2018-12-23T19:49:25.850Z,86.60
2018-12-23T20:02:25.554Z,86.30
2018-12-23T20:05:06.504Z,86.30
2018-12-23T20:07:47.594Z,86.20
2018-12-23T20:13:56.105Z,86.10
2018-12-23T20:19:57.865Z,85.80
2018-12-23T20:29:44.790Z,86.10
2018-12-23T20:32:25.412Z,85.70
2018-12-23T20:35:06.743Z,85.80
2018-12-23T20:37:47.271Z,85.60
2018-12-23T20:46:12.228Z,85.50
2018-12-23T21:11:58.939Z,85.10
2018-12-23T21:14:40.566Z,85.10
2018-12-23T21:20:12.903Z,85.20
2018-12-23T21:39:14.096Z,85.00
2018-12-23T21:57:40.300Z,85.00
2018-12-23T22:11:47.011Z,85.00
2018-12-23T22:23:08.551Z,84.90
2018-12-23T22:31:55.416Z,85.00
2018-12-23T22:58:44.935Z,95.10
2018-12-23T23:16:41.729Z,94.20
2018-12-23T23:19:28.576Z,93.90
2018-12-23T23:40:25.114Z,93.00
